Terminal Aerodrome Forecast
Issued by NWS Wilmington, NC

Home | Current Version | Previous Version | Text Only | Print | Product List | Glossary On
Versions: 1 2 3 4 5 6 7 8 9 10 11 12 13
899
FTUS42 KILM 091720
TAFLBT
TAF
KLBT 091720Z 0918/1018 34009G14KT P6SM SKC
     FM092300 34002KT P6SM SKC
     FM101300 04006KT P6SM SKC=

USA.gov is the U.S. government's official web portal to all federal, state and local government web resources and services.